sensor_id;sensor_type;location;lat;lon;timestamp;pressure;altitude;pressure_sealevel;temperature;humidity
39789;BME280;25478;42.626;23.320;2022-07-11T00:00:05;93158.13;;;16.14;59.75
39789;BME280;25478;42.626;23.320;2022-07-11T00:02:31;93159.34;;;16.10;59.93
39789;BME280;25478;42.626;23.320;2022-07-11T00:04:57;93159.81;;;16.04;60.19
39789;BME280;25478;42.626;23.320;2022-07-11T00:07:22;93157.97;;;16.01;60.48
39789;BME280;25478;42.626;23.320;2022-07-11T00:09:48;93157.69;;;15.96;60.82
39789;BME280;25478;42.626;23.320;2022-07-11T00:12:13;93137.91;;;15.77;60.97
39789;BME280;25478;42.626;23.320;2022-07-11T00:14:39;93160.13;;;15.87;61.26
39789;BME280;25478;42.626;23.320;2022-07-11T00:17:06;93165.50;;;15.83;61.48
39789;BME280;25478;42.626;23.320;2022-07-11T00:19:34;93165.94;;;15.78;61.67
39789;BME280;25478;42.626;23.320;2022-07-11T00:22:00;93166.44;;;15.73;62.02
39789;BME280;25478;42.626;23.320;2022-07-11T00:24:25;93164.56;;;15.70;62.34
39789;BME280;25478;42.626;23.320;2022-07-11T00:26:51;93166.88;;;15.68;62.57
39789;BME280;25478;42.626;23.320;2022-07-11T00:29:17;93169.97;;;15.63;63.10
39789;BME280;25478;42.626;23.320;2022-07-11T00:31:43;93174.97;;;15.57;63.46
39789;BME280;25478;42.626;23.320;2022-07-11T00:34:09;93147.56;;;15.40;63.55
39789;BME280;25478;42.626;23.320;2022-07-11T00:36:35;93176.56;;;15.51;63.99
39789;BME280;25478;42.626;23.320;2022-07-11T00:39:01;93167.53;;;15.48;64.12
39789;BME280;25478;42.626;23.320;2022-07-11T00:41:27;93170.59;;;15.47;64.42
39789;BME280;25478;42.626;23.320;2022-07-11T00:43:58;93158.59;;;15.35;64.65
39789;BME280;25478;42.626;23.320;2022-07-11T00:46:25;93168.31;;;15.45;64.80
39789;BME280;25478;42.626;23.320;2022-07-11T00:48:52;93158.84;;;15.44;64.58
39789;BME280;25478;42.626;23.320;2022-07-11T00:51:18;93169.81;;;15.46;64.58
39789;BME280;25478;42.626;23.320;2022-07-11T00:53:48;93173.97;;;15.47;64.51
39789;BME280;25478;42.626;23.320;2022-07-11T00:56:15;93169.81;;;15.46;64.06
39789;BME280;25478;42.626;23.320;2022-07-11T00:58:41;93159.34;;;15.36;64.25
39789;BME280;25478;42.626;23.320;2022-07-11T01:01:07;93170.22;;;15.45;63.83
39789;BME280;25478;42.626;23.320;2022-07-11T01:03:34;93167.97;;;15.43;63.84
39789;BME280;25478;42.626;23.320;2022-07-11T01:06:01;93174.09;;;15.40;63.95
39789;BME280;25478;42.626;23.320;2022-07-11T01:08:27;93173.34;;;15.40;63.58
39789;BME280;25478;42.626;23.320;2022-07-11T01:11:00;93162.34;;;15.38;63.58
39789;BME280;25478;42.626;23.320;2022-07-11T01:13:26;93169.22;;;15.35;63.48
39789;BME280;25478;42.626;23.320;2022-07-11T01:16:09;93167.72;;;15.34;63.28
39789;BME280;25478;42.626;23.320;2022-07-11T01:18:35;93165.13;;;15.31;63.53
39789;BME280;25478;42.626;23.320;2022-07-11T01:21:03;93156.88;;;15.25;63.39
39789;BME280;25478;42.626;23.320;2022-07-11T01:23:31;93166.72;;;15.25;63.48
39789;BME280;25478;42.626;23.320;2022-07-11T01:25:57;93167.13;;;15.23;63.26
39789;BME280;25478;42.626;23.320;2022-07-11T01:28:22;93171.31;;;15.20;63.35
39789;BME280;25478;42.626;23.320;2022-07-11T01:30:48;93170.16;;;15.21;63.10
39789;BME280;25478;42.626;23.320;2022-07-11T01:33:13;93167.16;;;15.19;63.22
39789;BME280;25478;42.626;23.320;2022-07-11T01:35:39;93162.28;;;15.18;62.86
39789;BME280;25478;42.626;23.320;2022-07-11T01:38:04;93166.81;;;15.17;62.97
39789;BME280;25478;42.626;23.320;2022-07-11T01:40:30;93108.25;;;14.81;63.02
39789;BME280;25478;42.626;23.320;2022-07-11T01:42:56;93161.56;;;15.14;63.03
39789;BME280;25478;42.626;23.320;2022-07-11T01:45:21;93160.06;;;15.13;63.01
39789;BME280;25478;42.626;23.320;2022-07-11T01:47:47;93170.31;;;15.11;62.93
39789;BME280;25478;42.626;23.320;2022-07-11T01:50:13;93169.97;;;15.09;63.23
39789;BME280;25478;42.626;23.320;2022-07-11T01:52:38;93173.44;;;15.06;63.44
39789;BME280;25478;42.626;23.320;2022-07-11T01:55:04;93182.56;;;15.01;63.64
39789;BME280;25478;42.626;23.320;2022-07-11T01:57:30;93176.09;;;15.02;63.75
39789;BME280;25478;42.626;23.320;2022-07-11T01:59:56;93178.41;;;15.00;63.82
39789;BME280;25478;42.626;23.320;2022-07-11T02:02:21;93175.81;;;14.97;63.51
39789;BME280;25478;42.626;23.320;2022-07-11T02:04:47;93177.34;;;14.94;63.88
39789;BME280;25478;42.626;23.320;2022-07-11T02:07:12;93175.84;;;14.93;63.88
39789;BME280;25478;42.626;23.320;2022-07-11T02:09:40;93178.91;;;14.91;63.72
39789;BME280;25478;42.626;23.320;2022-07-11T02:12:06;93164.31;;;14.76;63.32
39789;BME280;25478;42.626;23.320;2022-07-11T02:14:32;93175.91;;;14.89;63.46
39789;BME280;25478;42.626;23.320;2022-07-11T02:16:58;93172.50;;;14.89;63.56
39789;BME280;25478;42.626;23.320;2022-07-11T02:19:23;93180.81;;;14.91;63.19
39789;BME280;25478;42.626;23.320;2022-07-11T02:21:49;93177.41;;;14.90;63.79
39789;BME280;25478;42.626;23.320;2022-07-11T02:24:14;93183.47;;;14.87;63.79
39789;BME280;25478;42.626;23.320;2022-07-11T02:26:40;93177.09;;;14.85;64.06
39789;BME280;25478;42.626;23.320;2022-07-11T02:29:05;93191.50;;;14.84;63.96
39789;BME280;25478;42.626;23.320;2022-07-11T02:31:31;93194.94;;;14.81;64.26
39789;BME280;25478;42.626;23.320;2022-07-11T02:33:56;93190.41;;;14.81;64.37
39789;BME280;25478;42.626;23.320;2022-07-11T02:36:22;93191.16;;;14.78;64.36
39789;BME280;25478;42.626;23.320;2022-07-11T02:38:47;93185.19;;;14.74;64.50
39789;BME280;25478;42.626;23.320;2022-07-11T02:41:13;93189.72;;;14.74;64.60
39789;BME280;25478;42.626;23.320;2022-07-11T02:43:38;93195.06;;;14.70;64.93
39789;BME280;25478;42.626;23.320;2022-07-11T02:46:04;93186.75;;;14.68;64.95
39789;BME280;25478;42.626;23.320;2022-07-11T02:48:31;93184.19;;;14.61;64.73
39789;BME280;25478;42.626;23.320;2022-07-11T02:50:56;93197.75;;;14.67;64.66
39789;BME280;25478;42.626;23.320;2022-07-11T02:53:22;93196.25;;;14.66;64.71
39789;BME280;25478;42.626;23.320;2022-07-11T02:55:47;93195.50;;;14.65;64.37
39789;BME280;25478;42.626;23.320;2022-07-11T02:58:14;93193.25;;;14.63;64.57
39789;BME280;25478;42.626;23.320;2022-07-11T03:00:40;93192.84;;;14.65;64.11
39789;BME280;25478;42.626;23.320;2022-07-11T03:03:05;93195.50;;;14.65;63.72
39789;BME280;25478;42.626;23.320;2022-07-11T03:05:31;93206.50;;;14.63;63.98
39789;BME280;25478;42.626;23.320;2022-07-11T03:07:56;93204.56;;;14.68;63.84
39789;BME280;25478;42.626;23.320;2022-07-11T03:10:22;93207.53;;;14.70;63.20
39789;BME280;25478;42.626;23.320;2022-07-11T03:12:51;93208.66;;;14.72;63.03
39789;BME280;25478;42.626;23.320;2022-07-11T03:15:16;93209.78;;;14.75;63.15
39789;BME280;25478;42.626;23.320;2022-07-11T03:17:42;93183.41;;;14.64;63.12
39789;BME280;25478;42.626;23.320;2022-07-11T03:20:08;93210.03;;;14.84;62.30
39789;BME280;25478;42.626;23.320;2022-07-11T03:22:34;93196.84;;;14.80;62.12
39789;BME280;25478;42.626;23.320;2022-07-11T03:25:01;93194.50;;;14.86;61.81
39789;BME280;25478;42.626;23.320;2022-07-11T03:27:30;93211.25;;;15.10;61.41
39789;BME280;25478;42.626;23.320;2022-07-11T03:29:56;93211.59;;;15.12;61.26
39789;BME280;25478;42.626;23.320;2022-07-11T03:32:22;93203.38;;;15.03;61.03
39789;BME280;25478;42.626;23.320;2022-07-11T03:34:48;93214.22;;;15.12;61.41
39789;BME280;25478;42.626;23.320;2022-07-11T03:37:33;93185.63;;;15.00;61.35
39789;BME280;25478;42.626;23.320;2022-07-11T03:39:58;93211.22;;;15.13;61.14
39789;BME280;25478;42.626;23.320;2022-07-11T03:42:24;93209.25;;;15.17;60.93
39789;BME280;25478;42.626;23.320;2022-07-11T03:44:50;93200.09;;;15.22;61.04
39789;BME280;25478;42.626;23.320;2022-07-11T03:47:17;93215.63;;;15.24;60.72
39789;BME280;25478;42.626;23.320;2022-07-11T03:49:42;93218.56;;;15.29;60.40
39789;BME280;25478;42.626;23.320;2022-07-11T03:52:08;93224.56;;;15.33;60.52
39789;BME280;25478;42.626;23.320;2022-07-11T03:54:33;93221.56;;;15.31;60.57
39789;BME280;25478;42.626;23.320;2022-07-11T03:56:59;93218.13;;;15.34;60.28
39789;BME280;25478;42.626;23.320;2022-07-11T03:59:24;93225.53;;;15.46;60.10
39789;BME280;25478;42.626;23.320;2022-07-11T04:01:50;93236.84;;;15.51;59.94
39789;BME280;25478;42.626;23.320;2022-07-11T04:04:15;93236.50;;;15.48;60.16
39789;BME280;25478;42.626;23.320;2022-07-11T04:06:41;93237.94;;;15.53;60.19
39789;BME280;25478;42.626;23.320;2022-07-11T04:09:09;93239.50;;;15.51;60.35
39789;BME280;25478;42.626;23.320;2022-07-11T04:11:36;93238.69;;;15.54;60.40
39789;BME280;25478;42.626;23.320;2022-07-11T04:14:01;93240.94;;;15.55;60.74
39789;BME280;25478;42.626;23.320;2022-07-11T04:16:27;93245.44;;;15.62;61.07
39789;BME280;25478;42.626;23.320;2022-07-11T04:18:52;93251.50;;;15.59;61.40
39789;BME280;25478;42.626;23.320;2022-07-11T04:21:18;93253.44;;;15.55;62.24
39789;BME280;25478;42.626;23.320;2022-07-11T04:23:43;93251.59;;;15.52;62.34
39789;BME280;25478;42.626;23.320;2022-07-11T04:26:09;93261.41;;;15.55;63.01
39789;BME280;25478;42.626;23.320;2022-07-11T04:28:35;93253.41;;;15.58;63.26
39789;BME280;25478;42.626;23.320;2022-07-11T04:31:00;93268.91;;;15.63;62.63
39789;BME280;25478;42.626;23.320;2022-07-11T04:33:26;93263.59;;;15.63;62.27
39789;BME280;25478;42.626;23.320;2022-07-11T04:35:52;93266.66;;;15.62;62.24
39789;BME280;25478;42.626;23.320;2022-07-11T04:38:18;93263.97;;;15.65;62.46
39789;BME280;25478;42.626;23.320;2022-07-11T04:40:47;93270.69;;;15.73;61.95
39789;BME280;25478;42.626;23.320;2022-07-11T04:43:14;93266.81;;;15.78;61.98
39789;BME280;25478;42.626;23.320;2022-07-11T04:45:40;93271.59;;;15.87;61.85
39789;BME280;25478;42.626;23.320;2022-07-11T04:48:05;93261.22;;;15.96;61.40
39789;BME280;25478;42.626;23.320;2022-07-11T04:50:31;93280.38;;;16.34;60.27
39789;BME280;25478;42.626;23.320;2022-07-11T04:52:56;93266.38;;;16.77;59.21
39789;BME280;25478;42.626;23.320;2022-07-11T04:55:22;93262.69;;;17.10;58.18
39789;BME280;25478;42.626;23.320;2022-07-11T04:57:48;93265.47;;;17.23;57.39
39789;BME280;25478;42.626;23.320;2022-07-11T05:00:14;93266.91;;;17.64;56.36
39789;BME280;25478;42.626;23.320;2022-07-11T05:02:40;93243.47;;;17.59;55.45
39789;BME280;25478;42.626;23.320;2022-07-11T05:05:06;93264.25;;;18.00;55.07
39789;BME280;25478;42.626;23.320;2022-07-11T05:07:31;93219.94;;;17.90;53.84
39789;BME280;25478;42.626;23.320;2022-07-11T05:09:57;93266.00;;;18.23;53.36
39789;BME280;25478;42.626;23.320;2022-07-11T05:12:22;93275.66;;;18.33;53.40
39789;BME280;25478;42.626;23.320;2022-07-11T05:14:48;93282.13;;;18.48;53.09
39789;BME280;25478;42.626;23.320;2022-07-11T05:17:13;93280.28;;;18.62;52.67
39789;BME280;25478;42.626;23.320;2022-07-11T05:19:40;93273.16;;;18.88;51.82
39789;BME280;25478;42.626;23.320;2022-07-11T05:22:05;93274.38;;;19.28;51.16
39789;BME280;25478;42.626;23.320;2022-07-11T05:24:31;93274.88;;;19.65;49.14
39789;BME280;25478;42.626;23.320;2022-07-11T05:26:56;93279.16;;;20.01;47.35
39789;BME280;25478;42.626;23.320;2022-07-11T05:29:22;93278.41;;;20.13;45.32
39789;BME280;25478;42.626;23.320;2022-07-11T05:31:48;93273.16;;;20.09;44.40
39789;BME280;25478;42.626;23.320;2022-07-11T05:34:19;93281.91;;;20.35;42.82
39789;BME280;25478;42.626;23.320;2022-07-11T05:36:45;93279.75;;;20.43;41.28
39789;BME280;25478;42.626;23.320;2022-07-11T05:39:11;93281.28;;;20.44;40.95
39789;BME280;25478;42.626;23.320;2022-07-11T05:41:36;93273.88;;;20.48;40.38
39789;BME280;25478;42.626;23.320;2022-07-11T05:44:02;93285.63;;;20.50;40.28
39789;BME280;25478;42.626;23.320;2022-07-11T05:46:28;93283.59;;;20.55;40.28
39789;BME280;25478;42.626;23.320;2022-07-11T05:48:53;93279.97;;;20.48;40.51
39789;BME280;25478;42.626;23.320;2022-07-11T05:51:19;93282.22;;;20.50;41.22
39789;BME280;25478;42.626;23.320;2022-07-11T05:53:45;93274.41;;;20.56;41.59
39789;BME280;25478;42.626;23.320;2022-07-11T05:56:10;93266.59;;;20.61;42.10
39789;BME280;25478;42.626;23.320;2022-07-11T05:58:36;93268.47;;;20.73;41.97
39789;BME280;25478;42.626;23.320;2022-07-11T06:01:01;93290.66;;;20.96;41.71
39789;BME280;25478;42.626;23.320;2022-07-11T06:03:27;93282.41;;;20.90;41.44
39789;BME280;25478;42.626;23.320;2022-07-11T06:05:52;93292.38;;;20.90;41.23
39789;BME280;25478;42.626;23.320;2022-07-11T06:08:18;93282.16;;;20.75;41.84
39789;BME280;25478;42.626;23.320;2022-07-11T06:11:02;93276.25;;;20.46;42.15
39789;BME280;25478;42.626;23.320;2022-07-11T06:13:27;93287.03;;;20.30;42.69
39789;BME280;25478;42.626;23.320;2022-07-11T06:15:55;93284.59;;;20.22;43.28
39789;BME280;25478;42.626;23.320;2022-07-11T06:18:20;93285.56;;;20.03;44.06
39789;BME280;25478;42.626;23.320;2022-07-11T06:20:46;93297.53;;;20.11;44.04
39789;BME280;25478;42.626;23.320;2022-07-11T06:23:11;93292.31;;;20.20;43.49
39789;BME280;25478;42.626;23.320;2022-07-11T06:25:37;93295.69;;;20.34;43.67
39789;BME280;25478;42.626;23.320;2022-07-11T06:28:03;93298.88;;;20.41;43.75
39789;BME280;25478;42.626;23.320;2022-07-11T06:30:30;93296.22;;;20.41;42.70
39789;BME280;25478;42.626;23.320;2022-07-11T06:32:57;93300.28;;;20.59;42.25
39789;BME280;25478;42.626;23.320;2022-07-11T06:35:23;93288.56;;;20.78;40.19
39789;BME280;25478;42.626;23.320;2022-07-11T06:37:49;93297.38;;;20.66;39.97
39789;BME280;25478;42.626;23.320;2022-07-11T06:40:15;93278.50;;;20.35;39.10
39789;BME280;25478;42.626;23.320;2022-07-11T06:42:43;93295.06;;;20.30;39.10
39789;BME280;25478;42.626;23.320;2022-07-11T06:45:09;93293.03;;;20.08;38.65
39789;BME280;25478;42.626;23.320;2022-07-11T06:47:35;93292.84;;;20.03;37.70
39789;BME280;25478;42.626;23.320;2022-07-11T06:50:01;93296.81;;;20.11;37.74
39789;BME280;25478;42.626;23.320;2022-07-11T06:52:26;93286.94;;;20.08;37.88
39789;BME280;25478;42.626;23.320;2022-07-11T06:54:52;93286.75;;;20.15;37.69
39789;BME280;25478;42.626;23.320;2022-07-11T06:57:18;93279.91;;;20.01;37.33
39789;BME280;25478;42.626;23.320;2022-07-11T06:59:43;93286.13;;;19.85;37.49
39789;BME280;25478;42.626;23.320;2022-07-11T07:02:09;93280.88;;;19.82;37.96
39789;BME280;25478;42.626;23.320;2022-07-11T07:04:34;93279.25;;;19.97;37.67
39789;BME280;25478;42.626;23.320;2022-07-11T07:07:00;93280.13;;;19.94;38.08
39789;BME280;25478;42.626;23.320;2022-07-11T07:09:27;93296.03;;;19.98;37.79
39789;BME280;25478;42.626;23.320;2022-07-11T07:11:53;93284.84;;;20.03;36.97
39789;BME280;25478;42.626;23.320;2022-07-11T07:14:20;93289.53;;;19.99;37.29
39789;BME280;25478;42.626;23.320;2022-07-11T07:16:45;93286.84;;;20.11;37.49
39789;BME280;25478;42.626;23.320;2022-07-11T07:19:11;93277.09;;;20.17;37.79
39789;BME280;25478;42.626;23.320;2022-07-11T07:21:36;93279.25;;;20.35;37.46
39789;BME280;25478;42.626;23.320;2022-07-11T07:24:02;93275.59;;;20.16;38.22
39789;BME280;25478;42.626;23.320;2022-07-11T07:26:27;93276.81;;;20.03;38.65
39789;BME280;25478;42.626;23.320;2022-07-11T07:28:53;93269.53;;;19.90;39.03
39789;BME280;25478;42.626;23.320;2022-07-11T07:31:18;93265.59;;;19.95;39.51
39789;BME280;25478;42.626;23.320;2022-07-11T07:33:44;93269.00;;;19.95;39.89
39789;BME280;25478;42.626;23.320;2022-07-11T07:36:09;93272.75;;;19.85;40.20
39789;BME280;25478;42.626;23.320;2022-07-11T07:38:35;93277.75;;;19.83;40.71
39789;BME280;25478;42.626;23.320;2022-07-11T07:41:01;93271.13;;;19.75;41.24
39789;BME280;25478;42.626;23.320;2022-07-11T07:43:26;93276.38;;;19.79;42.01
39789;BME280;25478;42.626;23.320;2022-07-11T07:45:54;93266.13;;;19.64;42.62
39789;BME280;25478;42.626;23.320;2022-07-11T07:48:20;93271.59;;;19.86;42.87
39789;BME280;25478;42.626;23.320;2022-07-11T07:50:46;93274.13;;;19.90;42.15
39789;BME280;25478;42.626;23.320;2022-07-11T07:53:11;93271.91;;;19.88;42.36
39789;BME280;25478;42.626;23.320;2022-07-11T07:55:37;93274.34;;;19.70;42.44
39789;BME280;25478;42.626;23.320;2022-07-11T07:58:02;93277.34;;;19.59;42.54
39789;BME280;25478;42.626;23.320;2022-07-11T08:00:28;93267.50;;;19.56;42.77
39789;BME280;25478;42.626;23.320;2022-07-11T08:03:12;93274.41;;;19.54;42.87
39789;BME280;25478;42.626;23.320;2022-07-11T08:05:37;93274.25;;;19.61;42.83
39789;BME280;25478;42.626;23.320;2022-07-11T08:08:03;93268.69;;;19.68;42.56
39789;BME280;25478;42.626;23.320;2022-07-11T08:10:29;93277.66;;;19.74;42.45
39789;BME280;25478;42.626;23.320;2022-07-11T08:12:55;93266.22;;;19.74;42.83
39789;BME280;25478;42.626;23.320;2022-07-11T08:15:20;93277.00;;;19.83;42.55
39789;BME280;25478;42.626;23.320;2022-07-11T08:17:46;93280.31;;;20.00;42.13
39789;BME280;25478;42.626;23.320;2022-07-11T08:20:11;93277.56;;;20.03;42.35
39789;BME280;25478;42.626;23.320;2022-07-11T08:22:37;93279.25;;;19.97;41.95
39789;BME280;25478;42.626;23.320;2022-07-11T08:25:03;93276.91;;;19.86;41.75
39789;BME280;25478;42.626;23.320;2022-07-11T08:27:28;93267.72;;;19.75;41.90
39789;BME280;25478;42.626;23.320;2022-07-11T08:29:54;93272.84;;;19.56;41.79
39789;BME280;25478;42.626;23.320;2022-07-11T08:32:20;93275.56;;;19.40;41.95
39789;BME280;25478;42.626;23.320;2022-07-11T08:34:46;93264.00;;;19.18;42.06
39789;BME280;25478;42.626;23.320;2022-07-11T08:37:11;93274.88;;;19.23;42.53
39789;BME280;25478;42.626;23.320;2022-07-11T08:39:37;93288.34;;;19.32;41.59
39789;BME280;25478;42.626;23.320;2022-07-11T08:42:03;93283.06;;;19.16;41.71
39789;BME280;25478;42.626;23.320;2022-07-11T08:44:29;93285.97;;;19.09;42.32
39789;BME280;25478;42.626;23.320;2022-07-11T08:46:55;93294.72;;;19.09;42.41
39789;BME280;25478;42.626;23.320;2022-07-11T08:49:22;93290.88;;;19.23;42.42
39789;BME280;25478;42.626;23.320;2022-07-11T08:51:48;93289.53;;;19.31;42.20
39789;BME280;25478;42.626;23.320;2022-07-11T08:54:14;93294.84;;;19.31;42.00
39789;BME280;25478;42.626;23.320;2022-07-11T08:56:41;93293.38;;;19.30;42.05
39789;BME280;25478;42.626;23.320;2022-07-11T08:59:09;93297.41;;;19.22;42.23
39789;BME280;25478;42.626;23.320;2022-07-11T09:01:37;93276.66;;;19.01;42.23
39789;BME280;25478;42.626;23.320;2022-07-11T09:04:07;93295.63;;;19.03;41.92
39789;BME280;25478;42.626;23.320;2022-07-11T09:06:32;93282.25;;;18.90;42.52
39789;BME280;25478;42.626;23.320;2022-07-11T09:08:59;93288.63;;;19.09;41.94
39789;BME280;25478;42.626;23.320;2022-07-11T09:11:25;93294.72;;;19.09;41.21
39789;BME280;25478;42.626;23.320;2022-07-11T09:13:51;93297.56;;;19.02;41.79
39789;BME280;25478;42.626;23.320;2022-07-11T09:16:18;93296.38;;;19.03;41.76
39789;BME280;25478;42.626;23.320;2022-07-11T09:18:44;93291.56;;;18.98;41.21
39789;BME280;25478;42.626;23.320;2022-07-11T09:21:11;93306.59;;;18.92;41.22
39789;BME280;25478;42.626;23.320;2022-07-11T09:23:59;93301.69;;;18.74;41.64
39789;BME280;25478;42.626;23.320;2022-07-11T09:26:46;93306.63;;;18.76;42.19
39789;BME280;25478;42.626;23.320;2022-07-11T09:29:13;93303.00;;;18.82;42.14
39789;BME280;25478;42.626;23.320;2022-07-11T09:31:41;93316.91;;;18.90;42.21
39789;BME280;25478;42.626;23.320;2022-07-11T09:34:10;93310.97;;;18.99;42.03
39789;BME280;25478;42.626;23.320;2022-07-11T09:36:46;93305.63;;;18.99;41.64
39789;BME280;25478;42.626;23.320;2022-07-11T09:41:42;93310.63;;;18.84;41.32
39789;BME280;25478;42.626;23.320;2022-07-11T09:44:15;93310.38;;;18.78;41.77
39789;BME280;25478;42.626;23.320;2022-07-11T09:46:43;93311.59;;;18.90;41.45
39789;BME280;25478;42.626;23.320;2022-07-11T09:49:10;93317.81;;;19.00;41.17
39789;BME280;25478;42.626;23.320;2022-07-11T09:51:37;93323.56;;;18.98;41.25
39789;BME280;25478;42.626;23.320;2022-07-11T09:54:04;93317.81;;;19.00;41.00
39789;BME280;25478;42.626;23.320;2022-07-11T09:56:40;93314.22;;;19.06;41.47
39789;BME280;25478;42.626;23.320;2022-07-11T09:59:09;93313.72;;;19.24;40.65
39789;BME280;25478;42.626;23.320;2022-07-11T10:01:35;93310.09;;;19.18;40.79
39789;BME280;25478;42.626;23.320;2022-07-11T10:04:01;93301.44;;;19.14;41.09
39789;BME280;25478;42.626;23.320;2022-07-11T10:06:27;93301.13;;;19.25;40.80
39789;BME280;25478;42.626;23.320;2022-07-11T10:08:53;93302.56;;;19.29;40.72
39789;BME280;25478;42.626;23.320;2022-07-11T10:11:20;93319.63;;;19.32;41.32
39789;BME280;25478;42.626;23.320;2022-07-11T10:13:46;93311.06;;;19.24;41.14
39789;BME280;25478;42.626;23.320;2022-07-11T10:19:21;93323.41;;;19.34;41.66
39789;BME280;25478;42.626;23.320;2022-07-11T10:21:59;93321.97;;;19.59;41.19
39789;BME280;25478;42.626;23.320;2022-07-11T10:29:33;93313.94;;;19.59;39.68
39789;BME280;25478;42.626;23.320;2022-07-11T10:32:11;93299.63;;;19.53;40.04
39789;BME280;25478;42.626;23.320;2022-07-11T10:34:36;93319.28;;;19.59;39.88
39789;BME280;25478;42.626;23.320;2022-07-11T10:37:07;93327.06;;;19.53;39.63
39789;BME280;25478;42.626;23.320;2022-07-11T10:39:35;93311.44;;;19.39;39.70
39789;BME280;25478;42.626;23.320;2022-07-11T10:42:03;93326.47;;;19.62;40.13
39789;BME280;25478;42.626;23.320;2022-07-11T10:47:43;93330.91;;;19.94;39.05
39789;BME280;25478;42.626;23.320;2022-07-11T10:53:11;93324.34;;;19.70;39.38
39789;BME280;25478;42.626;23.320;2022-07-11T10:56:20;93330.31;;;19.74;38.64
39789;BME280;25478;42.626;23.320;2022-07-11T10:59:02;93320.19;;;19.68;38.70
39789;BME280;25478;42.626;23.320;2022-07-11T11:01:32;93193.59;;;18.86;38.37
39789;BME280;25478;42.626;23.320;2022-07-11T11:07:01;93339.75;;;19.78;39.24
39789;BME280;25478;42.626;23.320;2022-07-11T11:09:37;93340.28;;;19.86;38.93
39789;BME280;25478;42.626;23.320;2022-07-11T11:12:03;93331.19;;;19.83;38.95
39789;BME280;25478;42.626;23.320;2022-07-11T11:14:29;93320.94;;;19.82;38.39
39789;BME280;25478;42.626;23.320;2022-07-11T11:17:34;93330.22;;;19.90;38.25
39789;BME280;25478;42.626;23.320;2022-07-11T11:20:00;93340.28;;;19.86;38.00
39789;BME280;25478;42.626;23.320;2022-07-11T11:22:26;93333.97;;;19.80;38.42
39789;BME280;25478;42.626;23.320;2022-07-11T11:24:55;93334.28;;;19.82;38.62
39789;BME280;25478;42.626;23.320;2022-07-11T11:27:24;93336.53;;;19.83;38.28
39789;BME280;25478;42.626;23.320;2022-07-11T11:29:52;93342.41;;;19.78;38.38
39789;BME280;25478;42.626;23.320;2022-07-11T11:32:19;93340.19;;;19.77;38.28
39789;BME280;25478;42.626;23.320;2022-07-11T11:34:45;93336.28;;;19.65;38.47
39789;BME280;25478;42.626;23.320;2022-07-11T11:37:11;93343.66;;;19.61;39.31
39789;BME280;25478;42.626;23.320;2022-07-11T11:39:38;93338.13;;;19.68;37.97
39789;BME280;25478;42.626;23.320;2022-07-11T11:42:07;93319.56;;;19.48;37.28
39789;BME280;25478;42.626;23.320;2022-07-11T11:44:34;93332.56;;;19.62;37.80
39789;BME280;25478;42.626;23.320;2022-07-11T11:46:59;93344.66;;;19.80;38.03
39789;BME280;25478;42.626;23.320;2022-07-11T11:49:25;93342.63;;;19.84;38.47
39789;BME280;25478;42.626;23.320;2022-07-11T11:51:56;93336.75;;;19.76;38.47
39789;BME280;25478;42.626;23.320;2022-07-11T11:54:25;93341.25;;;19.79;39.03
39789;BME280;25478;42.626;23.320;2022-07-11T11:56:51;93337.63;;;19.86;39.18
39789;BME280;25478;42.626;23.320;2022-07-11T11:59:17;93335.81;;;19.95;38.76
39789;BME280;25478;42.626;23.320;2022-07-11T12:01:47;93341.47;;;20.10;39.04
39789;BME280;25478;42.626;23.320;2022-07-11T12:04:15;93336.66;;;20.31;38.78
39789;BME280;25478;42.626;23.320;2022-07-11T12:06:46;93335.56;;;20.41;38.62
39789;BME280;25478;42.626;23.320;2022-07-11T12:09:14;93347.25;;;20.47;38.30
39789;BME280;25478;42.626;23.320;2022-07-11T12:11:48;93332.09;;;20.44;38.33
39789;BME280;25478;42.626;23.320;2022-07-11T12:14:34;93347.69;;;20.45;38.29
39789;BME280;25478;42.626;23.320;2022-07-11T12:16:59;93347.38;;;20.43;38.88
39789;BME280;25478;42.626;23.320;2022-07-11T12:19:25;93345.84;;;20.42;38.08
39789;BME280;25478;42.626;23.320;2022-07-11T12:21:53;93338.06;;;20.35;38.38
39789;BME280;25478;42.626;23.320;2022-07-11T12:24:21;93325.63;;;20.41;38.62
39789;BME280;25478;42.626;23.320;2022-07-11T12:26:47;93322.41;;;20.34;38.55
39789;BME280;25478;42.626;23.320;2022-07-11T12:29:20;93334.00;;;20.43;38.32
39789;BME280;25478;42.626;23.320;2022-07-11T12:31:54;93343.53;;;20.44;37.76
39789;BME280;25478;42.626;23.320;2022-07-11T12:34:42;93325.00;;;20.37;37.74
39789;BME280;25478;42.626;23.320;2022-07-11T12:37:14;93323.41;;;20.27;37.72
39789;BME280;25478;42.626;23.320;2022-07-11T12:39:53;93328.44;;;20.12;38.39
39789;BME280;25478;42.626;23.320;2022-07-11T12:47:34;93332.81;;;20.06;39.41
39789;BME280;25478;42.626;23.320;2022-07-11T12:50:13;93336.44;;;20.25;39.70
39789;BME280;25478;42.626;23.320;2022-07-11T12:52:44;93340.19;;;20.40;38.54
39789;BME280;25478;42.626;23.320;2022-07-11T12:55:19;93335.06;;;20.46;38.55
39789;BME280;25478;42.626;23.320;2022-07-11T12:58:05;93331.34;;;20.43;38.63
39789;BME280;25478;42.626;23.320;2022-07-11T13:00:34;93332.28;;;20.37;38.37
39789;BME280;25478;42.626;23.320;2022-07-11T13:03:03;93319.88;;;20.30;38.63
39789;BME280;25478;42.626;23.320;2022-07-11T13:05:29;93324.81;;;20.44;38.34
39789;BME280;25478;42.626;23.320;2022-07-11T13:07:55;93328.22;;;20.45;38.90
39789;BME280;25478;42.626;23.320;2022-07-11T13:10:40;93328.00;;;20.52;38.32
39789;BME280;25478;42.626;23.320;2022-07-11T13:13:18;93324.06;;;20.44;38.01
39789;BME280;25478;42.626;23.320;2022-07-11T13:15:45;93324.06;;;20.44;38.70